Time;durP1;ratioP1;P1;durP2;ratioP2;P2;SDS_P1;SDS_P2;PMS_P1;PMS_P2;Temp;Humidity;BMP_temperature;BMP_pressure;BME280_temperature;BME280_humidity;BME280_pressure;Samples;Min_cycle;Max_cycle;Signal;HPM_P1;HPM_P2
2021/09/12 00:00:53;;;;;;;5.93;5.32;;;;;;;;;;4960562;28;20221;-79
2021/09/12 00:03:19;;;;;;;7.03;4.93;;;;;;;;;;4961063;28;20632;-79
2021/09/12 00:05:45;;;;;;;6.28;4.05;;;;;;;;;;4964494;28;20185;-79
2021/09/12 00:08:11;;;;;;;5.60;4.57;;;;;;;;;;4965731;28;20180;-79
2021/09/12 00:10:37;;;;;;;6.88;4.70;;;;;;;;;;4959314;28;20187;-79
2021/09/12 00:13:04;;;;;;;5.18;4.07;;;;;;;;;;4962370;28;20189;-79
2021/09/12 00:15:30;;;;;;;4.07;3.60;;;;;;;;;;4962713;28;20185;-79
2021/09/12 00:17:56;;;;;;;11.88;7.03;;;;;;;;;;4963372;28;20261;-79
2021/09/12 00:20:22;;;;;;;8.03;6.40;;;;;;;;;;4959954;28;20205;-79
2021/09/12 00:22:48;;;;;;;15.73;8.80;;;;;;;;;;4961326;28;20440;-79
2021/09/12 00:25:14;;;;;;;12.35;7.63;;;;;;;;;;4960533;29;20185;-79
2021/09/12 00:27:40;;;;;;;8.75;5.45;;;;;;;;;;4957623;28;20205;-79
2021/09/12 00:30:06;;;;;;;7.03;4.20;;;;;;;;;;4975936;28;20188;-79
2021/09/12 00:32:33;;;;;;;5.63;3.97;;;;;;;;;;4963777;28;20248;-79
2021/09/12 00:34:59;;;;;;;5.75;3.63;;;;;;;;;;4962262;28;20189;-79
2021/09/12 00:37:25;;;;;;;4.93;3.17;;;;;;;;;;4961825;28;20209;-79
2021/09/12 00:39:51;;;;;;;5.40;3.77;;;;;;;;;;4961297;28;20772;-79
2021/09/12 00:42:17;;;;;;;7.20;5.90;;;;;;;;;;4976727;28;20473;-79
2021/09/12 00:44:43;;;;;;;10.52;7.38;;;;;;;;;;4978733;28;20489;-79
2021/09/12 00:47:11;;;;;;;11.18;8.40;;;;;;;;;;4962517;28;20176;-79
2021/09/12 00:49:38;;;;;;;10.57;6.72;;;;;;;;;;4962996;28;20192;-79
2021/09/12 00:52:06;;;;;;;8.30;6.97;;;;;;;;;;4961612;28;20728;-79
2021/09/12 00:54:34;;;;;;;8.82;5.85;;;;;;;;;;4959367;28;20173;-79
2021/09/12 00:57:00;;;;;;;9.73;5.43;;;;;;;;;;4971526;28;20213;-79
2021/09/12 00:59:27;;;;;;;6.55;4.50;;;;;;;;;;4964310;29;20385;-79
2021/09/12 01:01:53;;;;;;;3.88;3.53;;;;;;;;;;4961541;28;20232;-79
2021/09/12 01:04:19;;;;;;;7.18;4.28;;;;;;;;;;4976804;28;20184;-79
2021/09/12 01:06:46;;;;;;;3.97;3.67;;;;;;;;;;4961826;28;20219;-79
2021/09/12 01:09:12;;;;;;;3.83;2.45;;;;;;;;;;4961233;28;20441;-79
2021/09/12 01:11:38;;;;;;;4.05;2.83;;;;;;;;;;4963434;28;20188;-79
2021/09/12 01:14:04;;;;;;;3.40;3.08;;;;;;;;;;4961198;29;20215;-79
2021/09/12 01:16:30;;;;;;;4.50;3.38;;;;;;;;;;4959932;28;20286;-79
2021/09/12 01:18:56;;;;;;;3.70;2.45;;;;;;;;;;4960391;28;20180;-79
2021/09/12 01:21:23;;;;;;;4.45;2.92;;;;;;;;;;4962037;28;20221;-79
2021/09/12 01:23:50;;;;;;;2.30;2.10;;;;;;;;;;4967306;28;20547;-79
2021/09/12 01:26:22;;;;;;;3.55;2.30;;;;;;;;;;4965877;28;20216;-79
2021/09/12 01:28:48;;;;;;;2.95;2.75;;;;;;;;;;4964420;28;20238;-79
2021/09/12 01:31:25;;;;;;;14.93;7.95;;;;;;;;;;4963618;28;20603;-79
2021/09/12 01:33:51;;;;;;;11.02;6.30;;;;;;;;;;4964812;28;20177;-79
2021/09/12 01:36:17;;;;;;;5.90;4.70;;;;;;;;;;4964727;28;20569;-79
2021/09/12 01:38:43;;;;;;;3.15;2.85;;;;;;;;;;4967115;28;20236;-79
2021/09/12 01:41:09;;;;;;;5.57;4.38;;;;;;;;;;4965812;28;20208;-80
2021/09/12 01:43:35;;;;;;;8.55;4.95;;;;;;;;;;4963325;28;20196;-79
2021/09/12 01:46:01;;;;;;;8.00;6.20;;;;;;;;;;4964543;28;20180;-79
2021/09/12 01:48:27;;;;;;;8.95;5.82;;;;;;;;;;4964611;28;20437;-79
2021/09/12 01:50:53;;;;;;;8.30;6.60;;;;;;;;;;4966307;28;20177;-79
2021/09/12 01:53:19;;;;;;;4.53;3.70;;;;;;;;;;4970087;28;20423;-79
2021/09/12 01:55:45;;;;;;;3.35;3.05;;;;;;;;;;4963862;28;20187;-79
2021/09/12 01:58:11;;;;;;;4.37;2.63;;;;;;;;;;4964756;29;20197;-79
2021/09/12 02:00:38;;;;;;;3.67;3.13;;;;;;;;;;4963320;28;20471;-79
2021/09/12 02:03:04;;;;;;;4.45;2.80;;;;;;;;;;4963631;28;20449;-79
2021/09/12 02:05:30;;;;;;;5.90;2.73;;;;;;;;;;4972769;28;20184;-79
2021/09/12 02:07:56;;;;;;;4.83;3.30;;;;;;;;;;4964145;28;20449;-79
2021/09/12 02:10:26;;;;;;;5.20;3.50;;;;;;;;;;4961205;28;20483;-79
2021/09/12 02:12:52;;;;;;;3.65;3.08;;;;;;;;;;4966050;28;20564;-79
2021/09/12 02:15:18;;;;;;;2.63;2.08;;;;;;;;;;4963175;28;20232;-79
2021/09/12 02:17:44;;;;;;;4.07;2.50;;;;;;;;;;4966821;28;20204;-79
2021/09/12 02:20:10;;;;;;;2.90;2.27;;;;;;;;;;4963812;28;20601;-79
2021/09/12 02:22:36;;;;;;;2.53;2.22;;;;;;;;;;4959655;28;20441;-79
2021/09/12 02:25:03;;;;;;;4.25;2.50;;;;;;;;;;4962010;29;20200;-79
2021/09/12 02:27:29;;;;;;;3.28;2.05;;;;;;;;;;4973037;28;20195;-79
2021/09/12 02:29:54;;;;;;;2.00;1.83;;;;;;;;;;4965343;28;20851;-79
2021/09/12 02:32:20;;;;;;;2.70;2.20;;;;;;;;;;4965305;28;20424;-79
2021/09/12 02:34:46;;;;;;;2.33;2.13;;;;;;;;;;4963913;28;20235;-79
2021/09/12 02:37:12;;;;;;;3.25;1.90;;;;;;;;;;4962477;28;20460;-79
2021/09/12 02:39:38;;;;;;;3.70;2.10;;;;;;;;;;4963705;28;20712;-79
2021/09/12 02:42:05;;;;;;;3.97;2.10;;;;;;;;;;4979916;28;20185;-79
2021/09/12 02:44:31;;;;;;;4.80;2.15;;;;;;;;;;4967307;28;20494;-79
2021/09/12 02:46:57;;;;;;;3.07;1.97;;;;;;;;;;4962222;28;20186;-79
2021/09/12 02:49:22;;;;;;;2.57;2.20;;;;;;;;;;4962244;28;20523;-80
2021/09/12 02:51:48;;;;;;;2.07;1.50;;;;;;;;;;4962660;28;20444;-79
2021/09/12 02:54:14;;;;;;;3.00;2.35;;;;;;;;;;4974413;28;20500;-79
2021/09/12 02:56:40;;;;;;;2.95;2.33;;;;;;;;;;4966342;28;20208;-79
2021/09/12 02:59:06;;;;;;;2.27;2.07;;;;;;;;;;4959749;28;20178;-79
2021/09/12 03:01:32;;;;;;;2.65;2.00;;;;;;;;;;4958869;28;20479;-79
2021/09/12 03:03:58;;;;;;;2.88;2.22;;;;;;;;;;4963635;28;20194;-79
2021/09/12 03:06:24;;;;;;;4.73;2.87;;;;;;;;;;4965177;28;20198;-79
2021/09/12 03:08:50;;;;;;;2.30;2.10;;;;;;;;;;4980176;28;20421;-79
2021/09/12 03:11:16;;;;;;;3.40;2.83;;;;;;;;;;4964096;28;20223;-79
2021/09/12 03:13:42;;;;;;;2.90;2.37;;;;;;;;;;4963252;28;20444;-79
2021/09/12 03:16:08;;;;;;;3.47;2.20;;;;;;;;;;4963090;28;20467;-79
2021/09/12 03:18:34;;;;;;;2.63;2.23;;;;;;;;;;4962416;28;20507;-79
2021/09/12 03:21:00;;;;;;;3.70;1.97;;;;;;;;;;4962458;28;20477;-79
2021/09/12 03:23:26;;;;;;;2.90;2.10;;;;;;;;;;4964229;28;20496;-79
2021/09/12 03:25:52;;;;;;;2.30;1.83;;;;;;;;;;4962605;28;20212;-79
2021/09/12 03:28:18;;;;;;;3.53;2.58;;;;;;;;;;4961999;28;20548;-79
2021/09/12 03:30:44;;;;;;;2.80;1.90;;;;;;;;;;4971632;28;20208;-79
2021/09/12 03:33:14;;;;;;;3.25;1.83;;;;;;;;;;4962424;28;20434;-79
2021/09/12 03:35:40;;;;;;;4.15;2.33;;;;;;;;;;4966168;28;20176;-79
2021/09/12 03:38:06;;;;;;;1.80;1.70;;;;;;;;;;4963091;29;20204;-80
2021/09/12 03:40:33;;;;;;;2.78;1.92;;;;;;;;;;4963727;28;20460;-79
2021/09/12 03:42:59;;;;;;;2.50;2.17;;;;;;;;;;4962795;28;20187;-80
2021/09/12 03:45:25;;;;;;;2.25;1.98;;;;;;;;;;4960702;28;20197;-80
2021/09/12 03:47:51;;;;;;;2.00;1.77;;;;;;;;;;4965343;28;20206;-79
2021/09/12 03:50:17;;;;;;;3.17;2.10;;;;;;;;;;4963745;29;20548;-79
2021/09/12 03:52:43;;;;;;;6.63;2.08;;;;;;;;;;4960973;28;20428;-80
2021/09/12 03:55:09;;;;;;;2.85;2.60;;;;;;;;;;4960839;28;20468;-80
2021/09/12 03:57:36;;;;;;;2.08;1.88;;;;;;;;;;4962909;28;20741;-80
2021/09/12 04:00:02;;;;;;;2.13;1.92;;;;;;;;;;4962421;28;20177;-80
2021/09/12 04:02:28;;;;;;;3.10;2.15;;;;;;;;;;4969984;28;20223;-80
2021/09/12 04:04:54;;;;;;;2.20;2.00;;;;;;;;;;4962069;28;20203;-80
2021/09/12 04:07:20;;;;;;;2.83;1.93;;;;;;;;;;4962078;28;20972;-80
2021/09/12 04:09:46;;;;;;;2.20;2.00;;;;;;;;;;4961783;28;20440;-80
2021/09/12 04:12:12;;;;;;;1.95;1.85;;;;;;;;;;4962089;28;20616;-80
2021/09/12 04:14:38;;;;;;;3.75;1.55;;;;;;;;;;4980129;28;20210;-80
2021/09/12 04:17:04;;;;;;;4.45;2.67;;;;;;;;;;4962447;28;20236;-80
2021/09/12 04:19:30;;;;;;;2.73;2.53;;;;;;;;;;4962293;28;20713;-80
2021/09/12 04:21:56;;;;;;;2.03;1.77;;;;;;;;;;4961259;28;20450;-80
2021/09/12 04:24:24;;;;;;;2.65;1.98;;;;;;;;;;4961312;28;20205;-80
2021/09/12 04:26:50;;;;;;;2.80;2.10;;;;;;;;;;4979038;28;20186;-80
2021/09/12 04:29:16;;;;;;;5.00;2.03;;;;;;;;;;4963497;28;20597;-81
2021/09/12 04:31:42;;;;;;;3.20;2.33;;;;;;;;;;4976219;28;20454;-80
2021/09/12 04:34:08;;;;;;;3.20;2.23;;;;;;;;;;4976778;28;20260;-80
2021/09/12 04:36:34;;;;;;;3.08;1.83;;;;;;;;;;4960303;28;20476;-80
2021/09/12 04:39:00;;;;;;;3.58;2.03;;;;;;;;;;4962768;28;20189;-80
2021/09/12 04:41:26;;;;;;;3.30;1.77;;;;;;;;;;4964016;29;20188;-80
2021/09/12 04:43:52;;;;;;;4.93;2.50;;;;;;;;;;4976448;28;21003;-80
2021/09/12 04:46:18;;;;;;;5.03;2.35;;;;;;;;;;4961518;28;20192;-80
2021/09/12 04:48:44;;;;;;;1.95;1.80;;;;;;;;;;4960927;28;20188;-80
2021/09/12 04:51:09;;;;;;;2.37;2.17;;;;;;;;;;4959708;28;20215;-80
2021/09/12 04:53:35;;;;;;;2.30;2.10;;;;;;;;;;4980224;28;20443;-80
2021/09/12 04:56:01;;;;;;;3.00;2.70;;;;;;;;;;4963177;28;20436;-80
2021/09/12 04:58:27;;;;;;;3.92;1.90;;;;;;;;;;4965759;28;20204;-79
2021/09/12 05:00:53;;;;;;;1.90;1.77;;;;;;;;;;4967165;28;20224;-79
2021/09/12 05:03:19;;;;;;;3.80;2.28;;;;;;;;;;4965393;28;20504;-80
2021/09/12 05:05:45;;;;;;;2.45;2.03;;;;;;;;;;4967661;28;20210;-80
2021/09/12 05:08:11;;;;;;;2.53;1.90;;;;;;;;;;4966938;28;20208;-80
2021/09/12 05:10:37;;;;;;;3.42;1.80;;;;;;;;;;4964604;28;20443;-81
2021/09/12 05:13:03;;;;;;;2.23;2.03;;;;;;;;;;4964095;28;20212;-81
2021/09/12 05:15:29;;;;;;;2.70;2.20;;;;;;;;;;4965659;28;20436;-80
2021/09/12 05:17:55;;;;;;;3.60;2.13;;;;;;;;;;4981235;28;21252;-80
2021/09/12 05:20:21;;;;;;;2.23;2.00;;;;;;;;;;4966415;28;20638;-80
2021/09/12 05:22:48;;;;;;;2.00;1.85;;;;;;;;;;4963321;28;20447;-80
2021/09/12 05:25:13;;;;;;;2.03;1.83;;;;;;;;;;4965142;28;20189;-80
2021/09/12 05:27:39;;;;;;;2.47;1.93;;;;;;;;;;4965528;28;20188;-80
2021/09/12 05:30:06;;;;;;;2.45;2.25;;;;;;;;;;4964637;28;20440;-80
2021/09/12 05:32:32;;;;;;;1.80;1.70;;;;;;;;;;4973569;28;20184;-80
2021/09/12 05:34:58;;;;;;;3.35;2.17;;;;;;;;;;4963707;28;20190;-79
2021/09/12 05:37:24;;;;;;;2.10;2.00;;;;;;;;;;4963530;28;20220;-79
2021/09/12 05:39:50;;;;;;;2.60;2.40;;;;;;;;;;4964041;28;20184;-80
2021/09/12 05:42:16;;;;;;;3.00;2.20;;;;;;;;;;4964985;28;20448;-80
2021/09/12 05:44:42;;;;;;;3.87;2.50;;;;;;;;;;4967081;28;20443;-80
2021/09/12 05:47:08;;;;;;;2.38;2.03;;;;;;;;;;4967931;28;20427;-80
2021/09/12 05:49:34;;;;;;;2.97;2.17;;;;;;;;;;4963841;28;20185;-80
2021/09/12 05:52:00;;;;;;;2.10;1.90;;;;;;;;;;4979015;28;20199;-80
2021/09/12 05:54:26;;;;;;;2.55;2.28;;;;;;;;;;4963714;28;20841;-80
2021/09/12 05:56:52;;;;;;;3.57;2.20;;;;;;;;;;4966722;28;20208;-80
2021/09/12 05:59:18;;;;;;;5.13;2.70;;;;;;;;;;4964406;28;20428;-80
2021/09/12 06:01:44;;;;;;;5.15;2.05;;;;;;;;;;4963963;29;20299;-80
2021/09/12 06:04:10;;;;;;;3.30;1.83;;;;;;;;;;4956702;28;20244;-80
2021/09/12 06:06:36;;;;;;;3.25;2.40;;;;;;;;;;4964545;28;20199;-80
2021/09/12 06:09:02;;;;;;;2.50;2.00;;;;;;;;;;4965074;28;20189;-80
2021/09/12 06:11:28;;;;;;;2.88;2.17;;;;;;;;;;4965755;28;20215;-80
2021/09/12 06:13:54;;;;;;;2.70;2.50;;;;;;;;;;4965011;28;20193;-79
2021/09/12 06:16:20;;;;;;;2.47;2.27;;;;;;;;;;4960375;28;20520;-80
2021/09/12 06:18:46;;;;;;;2.40;2.20;;;;;;;;;;4964434;28;20436;-80
2021/09/12 06:21:12;;;;;;;4.18;2.60;;;;;;;;;;4964838;28;20448;-80
2021/09/12 06:23:38;;;;;;;3.27;2.47;;;;;;;;;;4966838;28;20187;-79
2021/09/12 06:26:04;;;;;;;2.27;2.17;;;;;;;;;;4963770;28;20467;-80
2021/09/12 06:28:30;;;;;;;2.20;2.00;;;;;;;;;;4959947;28;20507;-80
2021/09/12 06:30:56;;;;;;;3.55;2.60;;;;;;;;;;4962765;28;20479;-79
2021/09/12 06:33:22;;;;;;;2.97;2.17;;;;;;;;;;4979047;28;20589;-80
2021/09/12 06:35:48;;;;;;;5.90;2.60;;;;;;;;;;4966351;28;20200;-80
2021/09/12 06:38:14;;;;;;;2.80;2.05;;;;;;;;;;4966779;28;20470;-79
2021/09/12 06:40:40;;;;;;;3.10;2.50;;;;;;;;;;4962195;29;20181;-79
2021/09/12 06:43:06;;;;;;;5.38;2.75;;;;;;;;;;4980525;28;20440;-80
2021/09/12 06:45:32;;;;;;;6.20;2.27;;;;;;;;;;4962936;28;20184;-79
2021/09/12 06:47:58;;;;;;;2.80;2.60;;;;;;;;;;4964929;28;20448;-80
2021/09/12 06:50:25;;;;;;;2.40;2.20;;;;;;;;;;4966447;29;20190;-79
2021/09/12 06:52:51;;;;;;;3.30;3.00;;;;;;;;;;4965355;28;20196;-80
2021/09/12 06:55:19;;;;;;;3.40;3.10;;;;;;;;;;4963413;28;20204;-79
2021/09/12 06:57:45;;;;;;;5.60;2.60;;;;;;;;;;4962367;28;20240;-79
2021/09/12 07:00:11;;;;;;;2.63;2.33;;;;;;;;;;4964365;28;20209;-79
2021/09/12 07:02:38;;;;;;;5.28;2.63;;;;;;;;;;4980503;28;20802;-79
2021/09/12 07:05:05;;;;;;;2.95;2.00;;;;;;;;;;4964654;28;20177;-79
2021/09/12 07:07:31;;;;;;;2.20;2.00;;;;;;;;;;4963351;28;20188;-79
2021/09/12 07:09:57;;;;;;;2.53;2.30;;;;;;;;;;4962707;28;20196;-79
2021/09/12 07:12:23;;;;;;;2.25;1.77;;;;;;;;;;4961993;28;20189;-78
2021/09/12 07:14:49;;;;;;;2.22;2.05;;;;;;;;;;4978511;28;20185;-78
2021/09/12 07:17:15;;;;;;;2.83;2.30;;;;;;;;;;4963554;28;20232;-78
2021/09/12 07:19:41;;;;;;;3.13;2.33;;;;;;;;;;4962419;28;20265;-79
2021/09/12 07:22:07;;;;;;;2.97;2.47;;;;;;;;;;4962932;28;20447;-78
2021/09/12 07:24:33;;;;;;;3.25;2.60;;;;;;;;;;4964004;28;20179;-78
2021/09/12 07:26:59;;;;;;;3.90;2.95;;;;;;;;;;4964626;28;20224;-78
2021/09/12 07:29:25;;;;;;;3.95;2.72;;;;;;;;;;4964901;28;20216;-78
2021/09/12 07:31:52;;;;;;;7.63;3.75;;;;;;;;;;4962400;28;20184;-78
2021/09/12 07:34:18;;;;;;;4.57;3.28;;;;;;;;;;4977372;28;20191;-78
2021/09/12 07:36:44;;;;;;;2.75;2.53;;;;;;;;;;4960301;29;20212;-78
2021/09/12 07:39:10;;;;;;;5.50;2.80;;;;;;;;;;4962665;28;20191;-78
2021/09/12 07:41:36;;;;;;;3.67;2.70;;;;;;;;;;4965455;28;20188;-78
2021/09/12 07:44:02;;;;;;;4.87;3.23;;;;;;;;;;4979375;28;20183;-78
2021/09/12 07:46:28;;;;;;;5.60;3.42;;;;;;;;;;4961864;28;20442;-78
2021/09/12 07:48:55;;;;;;;4.00;2.80;;;;;;;;;;4978465;28;20272;-78
2021/09/12 07:51:21;;;;;;;4.95;2.90;;;;;;;;;;4962318;28;20244;-79
2021/09/12 07:53:47;;;;;;;5.07;2.73;;;;;;;;;;4979280;28;20200;-78
2021/09/12 07:56:13;;;;;;;3.77;2.70;;;;;;;;;;4962598;28;20532;-78
2021/09/12 07:58:39;;;;;;;4.38;3.20;;;;;;;;;;4962549;28;20440;-78
2021/09/12 08:01:05;;;;;;;5.93;3.17;;;;;;;;;;4963916;28;20220;-78
2021/09/12 08:03:31;;;;;;;3.57;3.03;;;;;;;;;;4977438;28;20180;-78
2021/09/12 08:05:57;;;;;;;4.33;2.57;;;;;;;;;;4963786;28;20939;-78
2021/09/12 08:08:23;;;;;;;4.50;2.63;;;;;;;;;;4965159;28;20525;-78
2021/09/12 08:10:49;;;;;;;4.33;2.97;;;;;;;;;;4959610;29;20504;-78
2021/09/12 08:13:15;;;;;;;7.87;3.60;;;;;;;;;;4960955;28;20435;-78
2021/09/12 08:15:41;;;;;;;11.68;3.50;;;;;;;;;;4961599;28;20411;-77
2021/09/12 08:18:07;;;;;;;5.60;3.80;;;;;;;;;;4962435;28;20772;-78
2021/09/12 08:20:33;;;;;;;4.10;3.13;;;;;;;;;;4954579;28;20433;-78
2021/09/12 08:22:59;;;;;;;5.63;3.30;;;;;;;;;;4963341;28;20443;-78
2021/09/12 08:25:26;;;;;;;4.15;3.30;;;;;;;;;;4956941;28;20220;-78
2021/09/12 08:27:52;;;;;;;6.82;3.22;;;;;;;;;;4962305;28;20188;-78
2021/09/12 08:30:18;;;;;;;3.40;2.97;;;;;;;;;;4960783;28;20491;-77
2021/09/12 08:32:44;;;;;;;4.30;2.83;;;;;;;;;;4961429;28;20215;-78
2021/09/12 08:35:10;;;;;;;4.82;3.47;;;;;;;;;;4963103;28;20184;-77
2021/09/12 08:37:36;;;;;;;3.13;2.63;;;;;;;;;;4961806;28;20290;-77
2021/09/12 08:40:04;;;;;;;4.07;2.65;;;;;;;;;;4962352;28;20184;-77
2021/09/12 08:42:30;;;;;;;2.95;2.55;;;;;;;;;;4961143;28;20188;-77
2021/09/12 08:44:57;;;;;;;2.70;2.50;;;;;;;;;;4963465;28;20184;-77
2021/09/12 08:47:23;;;;;;;7.07;2.35;;;;;;;;;;4964508;29;20392;-78
2021/09/12 08:49:49;;;;;;;2.70;2.50;;;;;;;;;;4962302;28;20184;-77
2021/09/12 08:52:15;;;;;;;7.20;1.80;;;;;;;;;;4962869;28;20223;-79
2021/09/12 08:54:42;;;;;;;2.15;1.85;;;;;;;;;;4961816;28;20428;-77
2021/09/12 08:57:08;;;;;;;2.95;1.95;;;;;;;;;;4961291;28;20756;-77
2021/09/12 08:59:35;;;;;;;3.10;2.22;;;;;;;;;;4965454;28;20181;-78
2021/09/12 09:02:02;;;;;;;2.67;2.20;;;;;;;;;;4961484;28;20228;-78
2021/09/12 09:04:29;;;;;;;2.13;1.60;;;;;;;;;;4961375;28;20188;-77
2021/09/12 09:06:59;;;;;;;3.65;1.90;;;;;;;;;;4961856;28;20192;-78
2021/09/12 09:09:37;;;;;;;3.00;1.63;;;;;;;;;;4976352;28;20336;-78
2021/09/12 09:12:19;;;;;;;5.95;2.05;;;;;;;;;;4961578;28;20203;-78
2021/09/12 09:14:45;;;;;;;3.95;2.58;;;;;;;;;;4961201;29;20793;-78
2021/09/12 09:17:19;;;;;;;3.13;1.53;;;;;;;;;;4962945;28;20204;-79
2021/09/12 09:19:52;;;;;;;3.30;1.80;;;;;;;;;;4961556;28;20433;-78
2021/09/12 09:22:37;;;;;;;2.83;2.03;;;;;;;;;;4961510;28;20572;-78
2021/09/12 09:25:11;;;;;;;4.03;1.70;;;;;;;;;;4953757;29;20593;-78
2021/09/12 09:27:57;;;;;;;1.60;1.48;;;;;;;;;;4959964;28;20189;-78
2021/09/12 09:30:24;;;;;;;3.63;1.50;;;;;;;;;;4958900;29;20188;-78
2021/09/12 09:32:50;;;;;;;3.20;1.70;;;;;;;;;;4963720;28;20185;-79
2021/09/12 09:35:23;;;;;;;2.97;1.65;;;;;;;;;;4962595;28;20255;-78
2021/09/12 09:37:50;;;;;;;5.70;1.98;;;;;;;;;;4961383;28;20269;-78
2021/09/12 09:40:16;;;;;;;1.65;1.55;;;;;;;;;;4962651;28;20184;-78
2021/09/12 09:42:43;;;;;;;3.35;1.60;;;;;;;;;;4962058;28;20217;-78
2021/09/12 09:45:11;;;;;;;4.22;2.10;;;;;;;;;;4963317;28;20176;-78
2021/09/12 09:47:37;;;;;;;3.17;1.70;;;;;;;;;;4983474;28;20300;-79
2021/09/12 09:50:05;;;;;;;4.07;1.60;;;;;;;;;;4966791;29;20201;-79
2021/09/12 09:52:33;;;;;;;2.45;1.63;;;;;;;;;;4963301;28;20324;-79
2021/09/12 09:55:00;;;;;;;2.55;1.83;;;;;;;;;;4964621;28;20228;-78
2021/09/12 09:57:26;;;;;;;3.47;2.45;;;;;;;;;;4964505;28;20693;-78
2021/09/12 09:59:53;;;;;;;5.60;1.85;;;;;;;;;;4965842;28;20181;-78
2021/09/12 10:02:19;;;;;;;2.22;2.03;;;;;;;;;;4964748;29;20749;-79
2021/09/12 10:04:45;;;;;;;3.55;2.00;;;;;;;;;;4966040;28;20190;-79
2021/09/12 10:07:12;;;;;;;2.28;1.50;;;;;;;;;;4964194;28;20192;-80
2021/09/12 10:09:39;;;;;;;1.77;1.55;;;;;;;;;;4964403;28;20187;-79
2021/09/12 10:12:09;;;;;;;2.90;2.30;;;;;;;;;;4980232;28;20198;-78
2021/09/12 10:14:38;;;;;;;2.70;1.50;;;;;;;;;;4961721;28;20263;-79
2021/09/12 10:17:05;;;;;;;3.42;1.80;;;;;;;;;;4965303;28;20201;-80
2021/09/12 10:19:35;;;;;;;2.40;1.50;;;;;;;;;;4966092;28;20184;-79
2021/09/12 10:22:02;;;;;;;4.47;1.60;;;;;;;;;;4962932;29;20185;-79
2021/09/12 10:24:31;;;;;;;2.58;1.90;;;;;;;;;;4963068;28;20189;-79
2021/09/12 10:26:57;;;;;;;4.00;1.45;;;;;;;;;;4964951;28;20204;-80
2021/09/12 10:29:42;;;;;;;2.20;1.70;;;;;;;;;;4966748;29;20176;-80
2021/09/12 10:32:26;;;;;;;2.80;1.60;;;;;;;;;;4964985;29;20451;-80
2021/09/12 10:35:11;;;;;;;5.00;1.50;;;;;;;;;;4963347;28;20182;-80
2021/09/12 10:37:37;;;;;;;2.55;1.98;;;;;;;;;;4963634;28;20231;-79
2021/09/12 10:40:03;;;;;;;7.23;1.73;;;;;;;;;;4962628;28;20181;-79
2021/09/12 10:42:41;;;;;;;2.17;1.45;;;;;;;;;;4963876;28;20441;-80
2021/09/12 10:45:25;;;;;;;3.22;1.70;;;;;;;;;;4975247;28;20274;-80
2021/09/12 10:47:52;;;;;;;4.95;2.00;;;;;;;;;;4963012;28;20181;-79
2021/09/12 10:50:36;;;;;;;2.10;1.40;;;;;;;;;;4965630;29;20249;-80
2021/09/12 10:53:02;;;;;;;2.30;1.70;;;;;;;;;;4963156;28;20189;-80
2021/09/12 10:55:28;;;;;;;2.03;1.35;;;;;;;;;;4963133;29;20269;-79
2021/09/12 10:57:54;;;;;;;2.75;1.60;;;;;;;;;;4962775;28;20204;-79
2021/09/12 11:00:20;;;;;;;1.80;1.60;;;;;;;;;;4963619;28;20692;-79
2021/09/12 11:02:50;;;;;;;2.80;1.30;;;;;;;;;;4980566;28;20417;-79
2021/09/12 11:05:26;;;;;;;3.80;2.03;;;;;;;;;;4963279;28;20483;-79
2021/09/12 11:07:53;;;;;;;3.03;1.85;;;;;;;;;;4963567;28;20225;-80
2021/09/12 11:10:41;;;;;;;2.00;1.50;;;;;;;;;;4963068;28;20263;-79
2021/09/12 11:13:07;;;;;;;2.33;1.57;;;;;;;;;;4961392;28;20717;-79
2021/09/12 11:15:34;;;;;;;1.80;1.45;;;;;;;;;;4963560;28;20486;-79
2021/09/12 11:18:00;;;;;;;3.50;1.33;;;;;;;;;;4964091;28;20215;-79
2021/09/12 11:20:42;;;;;;;8.18;1.88;;;;;;;;;;4965723;29;20397;-80
2021/09/12 11:23:09;;;;;;;1.87;1.77;;;;;;;;;;4978962;28;20204;-80
2021/09/12 11:25:35;;;;;;;4.93;1.53;;;;;;;;;;4961444;28;20849;-80
2021/09/12 11:28:02;;;;;;;1.87;1.43;;;;;;;;;;4963066;28;20948;-80
2021/09/12 11:30:28;;;;;;;2.60;1.60;;;;;;;;;;4962191;28;20461;-80
2021/09/12 11:32:54;;;;;;;1.90;1.50;;;;;;;;;;4979349;28;20666;-80
2021/09/12 11:35:20;;;;;;;3.28;1.65;;;;;;;;;;4962824;28;20188;-79
2021/09/12 11:37:46;;;;;;;2.60;1.70;;;;;;;;;;4961775;28;20222;-80
2021/09/12 11:40:12;;;;;;;2.60;2.33;;;;;;;;;;4962497;28;20436;-79
2021/09/12 11:42:38;;;;;;;2.30;1.87;;;;;;;;;;4962362;28;20493;-80
2021/09/12 11:45:14;;;;;;;2.33;1.50;;;;;;;;;;4977729;28;20451;-80
2021/09/12 11:47:40;;;;;;;2.60;1.90;;;;;;;;;;4962256;29;20441;-79
2021/09/12 11:50:10;;;;;;;4.00;1.70;;;;;;;;;;4962706;29;20391;-80
2021/09/12 11:52:37;;;;;;;1.83;1.50;;;;;;;;;;4962414;28;20448;-80
2021/09/12 11:55:23;;;;;;;2.40;1.80;;;;;;;;;;4961130;28;20665;-80
2021/09/12 11:57:59;;;;;;;10.60;3.17;;;;;;;;;;4949242;29;20464;-80
2021/09/12 12:00:25;;;;;;;6.40;4.73;;;;;;;;;;4962559;28;20454;-82
2021/09/12 12:02:51;;;;;;;16.03;12.63;;;;;;;;;;4979652;28;20407;-80
2021/09/12 12:05:17;;;;;;;2.43;1.87;;;;;;;;;;4962369;28;20466;-80
2021/09/12 12:07:43;;;;;;;4.17;1.70;;;;;;;;;;4962995;28;20411;-81
2021/09/12 12:10:09;;;;;;;1.80;1.70;;;;;;;;;;4960815;28;20455;-80
2021/09/12 12:12:36;;;;;;;1.77;1.60;;;;;;;;;;4961946;28;20447;-80
2021/09/12 12:15:05;;;;;;;1.40;1.30;;;;;;;;;;4963364;28;20836;-82
2021/09/12 12:17:31;;;;;;;1.53;1.30;;;;;;;;;;4965459;29;20460;-80
2021/09/12 12:19:57;;;;;;;2.83;1.53;;;;;;;;;;4960834;28;20430;-80
2021/09/12 12:22:24;;;;;;;2.53;1.77;;;;;;;;;;4962034;28;20463;-80
2021/09/12 12:24:55;;;;;;;1.60;1.50;;;;;;;;;;4960492;28;20406;-81
2021/09/12 12:27:22;;;;;;;3.63;1.53;;;;;;;;;;4960659;28;20464;-80
2021/09/12 12:30:01;;;;;;;2.87;2.10;;;;;;;;;;4964388;28;20394;-79
2021/09/12 12:32:28;;;;;;;3.70;1.73;;;;;;;;;;4964839;29;20432;-80
2021/09/12 12:34:56;;;;;;;2.17;1.97;;;;;;;;;;4961138;28;20410;-80
2021/09/12 12:37:41;;;;;;;2.73;1.90;;;;;;;;;;4961887;28;20454;-80
2021/09/12 12:40:08;;;;;;;3.03;2.20;;;;;;;;;;4960547;29;20414;-80
2021/09/12 12:42:35;;;;;;;3.33;3.07;;;;;;;;;;4961908;28;20436;-79
2021/09/12 12:45:16;;;;;;;3.00;2.23;;;;;;;;;;4977718;28;20449;-80
2021/09/12 12:47:42;;;;;;;2.40;1.90;;;;;;;;;;4961347;29;20691;-80
2021/09/12 12:50:08;;;;;;;3.00;2.20;;;;;;;;;;4961653;28;20441;-80
2021/09/12 12:52:34;;;;;;;1.83;1.73;;;;;;;;;;4976442;28;20457;-82
2021/09/12 12:55:00;;;;;;;1.50;1.40;;;;;;;;;;4960256;28;20462;-80
2021/09/12 12:57:28;;;;;;;2.00;1.50;;;;;;;;;;4961917;28;20479;-81
2021/09/12 12:59:54;;;;;;;1.90;1.30;;;;;;;;;;4977844;28;20431;-79
2021/09/12 13:02:20;;;;;;;1.43;1.33;;;;;;;;;;4963223;29;20431;-78
2021/09/12 13:04:46;;;;;;;1.93;1.77;;;;;;;;;;4960919;28;20463;-78
2021/09/12 13:07:13;;;;;;;1.83;1.70;;;;;;;;;;4962233;28;20455;-78
2021/09/12 13:09:39;;;;;;;2.97;1.50;;;;;;;;;;4961811;28;20439;-80
2021/09/12 13:12:06;;;;;;;1.77;1.63;;;;;;;;;;4976771;28;20460;-83
2021/09/12 13:14:32;;;;;;;1.63;1.53;;;;;;;;;;4964920;29;20436;-78
2021/09/12 13:16:58;;;;;;;1.77;1.60;;;;;;;;;;4961467;28;20472;-79
2021/09/12 13:19:25;;;;;;;2.07;1.50;;;;;;;;;;4964048;29;20440;-78
2021/09/12 13:21:51;;;;;;;2.87;1.63;;;;;;;;;;4965836;28;20519;-79
2021/09/12 13:24:17;;;;;;;1.60;1.50;;;;;;;;;;4965269;28;20452;-79
2021/09/12 13:26:43;;;;;;;1.97;1.60;;;;;;;;;;4967253;28;20442;-80
2021/09/12 13:29:09;;;;;;;2.03;1.80;;;;;;;;;;4965159;28;20424;-80
2021/09/12 13:31:35;;;;;;;2.60;1.37;;;;;;;;;;4963469;28;20479;-79
2021/09/12 13:34:01;;;;;;;1.20;1.10;;;;;;;;;;4963766;28;20444;-78
2021/09/12 13:36:28;;;;;;;2.77;1.43;;;;;;;;;;4965277;28;20482;-78
2021/09/12 13:38:54;;;;;;;1.77;1.43;;;;;;;;;;4967118;28;20420;-79
2021/09/12 13:41:20;;;;;;;1.20;1.10;;;;;;;;;;4966653;29;20455;-78
2021/09/12 13:43:47;;;;;;;1.60;1.50;;;;;;;;;;4964851;28;20463;-78
2021/09/12 13:46:13;;;;;;;1.70;1.37;;;;;;;;;;4964647;28;20444;-79
2021/09/12 13:48:39;;;;;;;1.43;1.30;;;;;;;;;;4965004;28;20435;-79
2021/09/12 13:51:06;;;;;;;1.50;1.30;;;;;;;;;;4965623;28;20479;-78
2021/09/12 13:53:32;;;;;;;1.73;1.63;;;;;;;;;;4968469;29;20960;-78
2021/09/12 13:55:58;;;;;;;1.57;1.47;;;;;;;;;;4963987;28;20434;-78
2021/09/12 13:58:24;;;;;;;2.20;1.60;;;;;;;;;;4964109;29;20471;-78
2021/09/12 14:00:50;;;;;;;2.00;1.70;;;;;;;;;;4954680;28;20598;-79
2021/09/12 14:03:16;;;;;;;1.40;1.30;;;;;;;;;;4964570;28;20452;-79
2021/09/12 14:05:42;;;;;;;1.70;1.60;;;;;;;;;;4967535;28;20439;-78
2021/09/12 14:08:08;;;;;;;2.30;2.10;;;;;;;;;;4965552;29;20448;-79
2021/09/12 14:10:34;;;;;;;1.67;1.57;;;;;;;;;;4964342;28;20437;-78
2021/09/12 14:13:00;;;;;;;1.63;1.53;;;;;;;;;;4963849;28;20440;-78
2021/09/12 14:15:26;;;;;;;2.03;1.80;;;;;;;;;;4963920;28;20444;-78
2021/09/12 14:17:52;;;;;;;2.07;1.80;;;;;;;;;;4966982;28;20957;-80
2021/09/12 14:20:19;;;;;;;1.53;1.40;;;;;;;;;;4965724;29;20419;-78
2021/09/12 14:22:45;;;;;;;2.10;1.90;;;;;;;;;;4964156;28;20492;-79
2021/09/12 14:25:11;;;;;;;2.30;1.97;;;;;;;;;;4964056;28;20443;-79
2021/09/12 14:27:37;;;;;;;1.63;1.53;;;;;;;;;;4962297;28;20454;-77
2021/09/12 14:30:03;;;;;;;3.00;1.90;;;;;;;;;;4963170;28;20469;-80
2021/09/12 14:32:29;;;;;;;1.60;1.50;;;;;;;;;;4971811;28;20435;-78
2021/09/12 14:34:55;;;;;;;1.63;1.30;;;;;;;;;;4962720;28;20454;-78
2021/09/12 14:37:21;;;;;;;1.40;1.30;;;;;;;;;;4962772;29;20502;-80
2021/09/12 14:39:47;;;;;;;1.77;1.67;;;;;;;;;;4978722;28;20434;-79
2021/09/12 14:42:14;;;;;;;2.50;1.77;;;;;;;;;;4963787;28;20454;-78